Southside, Tennessee
Current Conditions -  °F | °C
As of 11:52 PM on Wednesday 22 Oct 2014 (Local Time) from KCKV Reporting Station
Clear Clear  
Wind Chill: 39°   Ceiling: Unl
Heat Index: 43°   Visibility: 10mi
Dew Point: 41°   Wind: 6mph
Humidity: 93%   Direction: 70°ENE
Pressure: 30.22"   Gusts: NA
Location:  36.37°N, 87.3°W
Report Text: KCKV 230452Z AUTO 07005KT 10SM CLR 06/05 A3022 RMK AO2 SLP232 T00610050
Loading
Personal Weather Stations






























Interactive Weather Map
Tropical Storm Tracking
New forecast layout! Learn more

10-Day Weather Forecast

Advertisements
Track Severe Weather on mobile